createdAt,value
2023-05-10T00:00:18.616Z,15.94
2023-05-10T00:02:46.693Z,16.02
2023-05-10T00:05:14.442Z,16.21
2023-05-10T00:07:45.499Z,15.88
2023-05-10T00:10:13.662Z,15.73
2023-05-10T00:12:41.477Z,15.53
2023-05-10T00:15:11.415Z,15.57
2023-05-10T00:17:39.107Z,15.49
2023-05-10T00:20:07.827Z,15.83
2023-05-10T00:22:35.587Z,15.81
2023-05-10T00:25:03.744Z,15.83
2023-05-10T00:27:31.416Z,15.85
2023-05-10T00:29:59.110Z,15.71
2023-05-10T00:32:28.137Z,15.77
2023-05-10T00:34:55.795Z,15.56
2023-05-10T00:37:23.795Z,15.31
2023-05-10T00:39:51.457Z,15.43
2023-05-10T00:42:19.151Z,15.77
2023-05-10T00:44:47.639Z,15.68
2023-05-10T00:47:15.473Z,15.61
2023-05-10T00:49:44.635Z,15.33
2023-05-10T00:52:12.405Z,15.46
2023-05-10T00:54:40.137Z,15.48
2023-05-10T00:57:07.845Z,15.38
2023-05-10T00:59:35.569Z,15.18
2023-05-10T01:02:03.931Z,15.19
2023-05-10T01:04:32.322Z,15.38
2023-05-10T01:07:02.032Z,15.61
2023-05-10T01:09:30.026Z,15.58
2023-05-10T01:11:58.616Z,15.49
2023-05-10T01:14:27.185Z,15.60
2023-05-10T01:16:54.968Z,15.38
2023-05-10T01:19:26.091Z,15.48
2023-05-10T01:22:02.241Z,15.39
2023-05-10T01:24:47.794Z,15.41
2023-05-10T01:27:41.019Z,15.56
2023-05-10T01:30:59.450Z,15.25
2023-05-10T01:33:32.443Z,15.22
2023-05-10T01:36:07.553Z,15.56
2023-05-10T01:38:41.288Z,15.66
2023-05-10T01:41:15.835Z,15.45
2023-05-10T01:43:48.217Z,15.51
2023-05-10T01:46:19.151Z,15.46
2023-05-10T01:48:50.246Z,15.49
2023-05-10T01:51:21.098Z,15.08
2023-05-10T01:53:50.197Z,15.17
2023-05-10T01:56:18.292Z,15.40
2023-05-10T01:58:47.462Z,15.65
2023-05-10T02:01:15.464Z,15.28
2023-05-10T02:03:44.744Z,15.44
2023-05-10T02:06:15.388Z,15.43
2023-05-10T02:08:46.511Z,15.31
2023-05-10T02:11:15.646Z,15.49
2023-05-10T02:13:44.524Z,15.38
2023-05-10T02:16:12.530Z,15.41
2023-05-10T02:18:41.912Z,15.48
2023-05-10T02:21:10.757Z,15.43
2023-05-10T02:23:40.256Z,15.68
2023-05-10T02:26:08.609Z,15.59
2023-05-10T02:28:38.595Z,15.69
2023-05-10T02:31:07.590Z,15.46
2023-05-10T02:33:36.298Z,15.53
2023-05-10T02:36:04.850Z,15.65
2023-05-10T02:38:33.348Z,15.64
2023-05-10T02:41:03.831Z,15.42
2023-05-10T02:43:32.486Z,15.29
2023-05-10T02:46:00.275Z,15.50
2023-05-10T02:48:28.034Z,15.45
2023-05-10T02:50:57.239Z,15.56
2023-05-10T02:53:27.580Z,15.34
2023-05-10T02:55:59.830Z,15.47
2023-05-10T02:58:29.144Z,15.52
2023-05-10T03:00:56.882Z,15.40
2023-05-10T03:03:24.541Z,15.68
2023-05-10T03:05:54.741Z,15.43
2023-05-10T03:08:22.444Z,15.43
2023-05-10T03:10:57.825Z,15.61
2023-05-10T03:13:31.668Z,15.26
2023-05-10T03:16:03.068Z,15.43
2023-05-10T03:18:38.803Z,15.75
2023-05-10T03:21:11.572Z,15.76
2023-05-10T03:23:43.304Z,15.64
2023-05-10T03:26:11.377Z,15.57
2023-05-10T03:28:41.624Z,15.23
2023-05-10T03:31:09.461Z,15.49
2023-05-10T03:33:37.253Z,15.35
2023-05-10T03:36:05.510Z,15.55
2023-05-10T03:38:33.163Z,15.49
2023-05-10T03:41:00.815Z,15.42
2023-05-10T03:43:28.607Z,15.43
2023-05-10T03:45:57.675Z,15.33
2023-05-10T03:48:25.383Z,15.60
2023-05-10T03:50:53.049Z,15.53
2023-05-10T03:53:21.110Z,15.48
2023-05-10T03:55:48.788Z,15.55
2023-05-10T03:58:16.531Z,15.29
2023-05-10T04:00:46.088Z,15.57
2023-05-10T04:03:15.807Z,15.65
2023-05-10T04:05:43.624Z,15.83
2023-05-10T04:08:11.511Z,15.73
2023-05-10T04:10:39.151Z,15.70
2023-05-10T04:13:06.963Z,15.86
2023-05-10T04:15:34.785Z,15.59
2023-05-10T04:18:02.537Z,15.76
2023-05-10T04:20:31.563Z,15.89
2023-05-10T04:22:59.291Z,15.61
2023-05-10T04:25:27.003Z,15.62
2023-05-10T04:27:54.674Z,15.58
2023-05-10T04:30:22.722Z,15.83
2023-05-10T04:32:50.519Z,15.87
2023-05-10T04:35:18.357Z,15.85
2023-05-10T04:37:47.443Z,15.79
2023-05-10T04:40:15.416Z,15.81
2023-05-10T04:42:43.384Z,15.85
2023-05-10T04:45:11.947Z,16.04
2023-05-10T04:47:39.860Z,15.89
2023-05-10T04:50:08.844Z,16.08
2023-05-10T04:52:37.332Z,16.15
2023-05-10T04:55:08.460Z,16.01
2023-05-10T04:57:36.126Z,16.09
2023-05-10T05:00:04.034Z,15.94
2023-05-10T05:02:31.777Z,16.19
2023-05-10T05:04:59.757Z,16.07
2023-05-10T05:07:27.506Z,16.13
2023-05-10T05:09:55.238Z,15.92
2023-05-10T05:12:24.310Z,15.79
2023-05-10T05:14:51.988Z,16.17
2023-05-10T05:17:19.665Z,16.31
2023-05-10T05:19:47.742Z,16.40
2023-05-10T05:22:16.181Z,16.64
2023-05-10T05:24:44.541Z,16.52
2023-05-10T05:27:12.202Z,16.54
2023-05-10T05:29:41.236Z,16.49
2023-05-10T05:32:09.540Z,16.56
2023-05-10T05:34:37.341Z,16.27
2023-05-10T05:37:05.066Z,16.00
2023-05-10T05:39:32.702Z,15.79
2023-05-10T05:42:00.401Z,15.36
2023-05-10T05:44:29.838Z,15.69
2023-05-10T05:46:58.969Z,15.77
2023-05-10T05:49:26.623Z,15.59
2023-05-10T05:51:54.411Z,15.75
2023-05-10T05:54:22.517Z,15.82
2023-05-10T05:56:50.421Z,15.88
2023-05-10T05:59:18.173Z,16.14
2023-05-10T06:01:46.319Z,15.97
2023-05-10T06:04:15.402Z,16.15
2023-05-10T06:06:43.327Z,15.99
2023-05-10T06:09:11.050Z,15.72
2023-05-10T06:11:38.904Z,15.92
2023-05-10T06:14:08.142Z,15.96
2023-05-10T06:16:36.199Z,15.97
2023-05-10T06:19:04.195Z,15.85
2023-05-10T06:21:33.773Z,15.95
2023-05-10T06:24:01.471Z,15.79
2023-05-10T06:26:29.245Z,15.48
2023-05-10T06:28:56.910Z,15.78
2023-05-10T06:31:24.596Z,15.85
2023-05-10T06:33:53.287Z,15.95
2023-05-10T06:36:22.961Z,15.84
2023-05-10T06:38:52.255Z,16.35
2023-05-10T06:41:19.948Z,16.81
2023-05-10T06:43:47.602Z,16.58
2023-05-10T06:46:15.292Z,16.59
2023-05-10T06:48:42.993Z,16.35
2023-05-10T06:51:10.769Z,16.20
2023-05-10T06:53:38.465Z,16.63
2023-05-10T06:56:07.683Z,16.87
2023-05-10T06:58:35.344Z,16.83
2023-05-10T07:01:06.453Z,16.87
2023-05-10T07:03:34.282Z,16.70
2023-05-10T07:06:04.089Z,16.55
2023-05-10T07:08:32.276Z,16.63
2023-05-10T07:11:02.500Z,16.02
2023-05-10T07:13:32.385Z,16.46
2023-05-10T07:16:00.304Z,16.26
2023-05-10T07:18:28.349Z,16.34
2023-05-10T07:20:56.142Z,16.66
2023-05-10T07:23:23.835Z,16.65
2023-05-10T07:25:53.063Z,16.91
2023-05-10T07:28:20.931Z,16.88
2023-05-10T07:30:50.086Z,17.42
2023-05-10T07:33:18.152Z,16.99
2023-05-10T07:35:45.859Z,17.02
2023-05-10T07:38:13.559Z,17.32
2023-05-10T07:40:41.631Z,17.43
2023-05-10T07:43:09.365Z,16.82
2023-05-10T07:45:37.102Z,17.47
2023-05-10T07:48:06.445Z,18.35
2023-05-10T07:50:34.206Z,17.78
2023-05-10T07:53:01.904Z,17.86
2023-05-10T07:55:29.543Z,18.06
2023-05-10T07:57:57.771Z,18.21
2023-05-10T08:00:25.501Z,18.29
2023-05-10T08:02:53.966Z,18.50
2023-05-10T08:05:23.131Z,17.92
2023-05-10T08:07:50.803Z,18.47
2023-05-10T08:10:18.545Z,18.36
2023-05-10T08:12:46.224Z,18.84
2023-05-10T08:15:13.954Z,19.32
2023-05-10T08:17:42.004Z,19.13
2023-05-10T08:20:10.309Z,18.38
2023-05-10T08:22:39.357Z,18.99
2023-05-10T08:25:08.085Z,19.33
2023-05-10T08:27:35.810Z,19.93
2023-05-10T08:30:03.471Z,19.43
2023-05-10T08:32:31.180Z,19.65
2023-05-10T08:34:58.895Z,19.58
2023-05-10T08:37:26.661Z,19.58
2023-05-10T08:39:55.673Z,19.97
2023-05-10T08:42:24.713Z,19.82
2023-05-10T08:44:52.501Z,20.14
2023-05-10T08:47:20.776Z,20.20
2023-05-10T08:49:49.932Z,19.44
2023-05-10T08:52:18.895Z,19.40
2023-05-10T08:54:46.655Z,18.41
2023-05-10T08:57:15.675Z,18.45
2023-05-10T08:59:43.341Z,18.65
2023-05-10T09:02:12.238Z,19.16
2023-05-10T09:04:40.071Z,19.56
2023-05-10T09:07:08.448Z,19.44
2023-05-10T09:09:36.637Z,19.46
2023-05-10T09:12:04.364Z,19.62
2023-05-10T09:14:36.759Z,19.80
2023-05-10T09:17:04.764Z,19.35
2023-05-10T09:19:32.444Z,19.65
2023-05-10T09:22:01.189Z,19.52
2023-05-10T09:24:28.898Z,19.66
2023-05-10T09:26:59.268Z,20.63
2023-05-10T09:29:27.048Z,20.09
2023-05-10T09:31:56.606Z,19.91
2023-05-10T09:34:31.642Z,20.33
2023-05-10T09:37:01.809Z,20.67
2023-05-10T09:39:33.829Z,20.48
2023-05-10T09:42:04.682Z,21.10
2023-05-10T09:44:33.506Z,20.32
2023-05-10T09:47:02.674Z,20.40
2023-05-10T09:49:30.504Z,20.75
2023-05-10T09:52:05.400Z,20.94
2023-05-10T09:54:33.534Z,20.98
2023-05-10T09:57:01.659Z,20.89
2023-05-10T09:59:31.387Z,21.12
2023-05-10T10:01:59.888Z,21.14
2023-05-10T10:04:29.340Z,21.36
2023-05-10T10:07:04.879Z,20.46
2023-05-10T10:09:33.155Z,20.75
2023-05-10T10:12:02.250Z,20.65
2023-05-10T10:14:30.799Z,20.53
2023-05-10T10:19:30.645Z,20.70
2023-05-10T10:22:00.000Z,20.48
2023-05-10T10:24:27.670Z,20.45
2023-05-10T10:26:58.259Z,19.87
2023-05-10T10:29:30.701Z,20.07
2023-05-10T10:32:06.183Z,20.22
2023-05-10T10:34:35.313Z,19.81
2023-05-10T10:37:06.677Z,19.65
2023-05-10T10:39:37.386Z,20.55
2023-05-10T10:42:06.392Z,21.06
2023-05-10T10:44:39.057Z,19.76
2023-05-10T10:47:12.300Z,20.29
2023-05-10T10:49:52.534Z,20.81
2023-05-10T10:52:24.971Z,20.26
2023-05-10T10:54:53.988Z,19.80
2023-05-10T10:57:23.587Z,20.63
2023-05-10T10:59:51.812Z,20.93
2023-05-10T11:02:36.323Z,20.87
2023-05-10T11:05:45.894Z,20.10
2023-05-10T11:08:28.875Z,20.80
2023-05-10T11:11:08.963Z,21.13
2023-05-10T11:13:40.747Z,20.69
2023-05-10T11:16:16.878Z,20.92
2023-05-10T11:18:55.484Z,21.24
2023-05-10T11:21:23.665Z,21.24
2023-05-10T11:23:57.106Z,20.86
2023-05-10T11:26:26.608Z,20.72
2023-05-10T11:28:56.259Z,20.23
2023-05-10T11:31:24.757Z,20.44
2023-05-10T11:33:53.738Z,20.47
2023-05-10T11:36:22.509Z,20.12
2023-05-10T11:38:51.850Z,20.01
2023-05-10T11:41:22.704Z,19.97
2023-05-10T11:43:52.245Z,20.54
2023-05-10T11:46:21.609Z,20.75
2023-05-10T11:48:51.841Z,21.02
2023-05-10T11:51:22.930Z,21.46
2023-05-10T11:53:54.398Z,21.57
2023-05-10T11:56:22.775Z,21.11
2023-05-10T11:58:55.289Z,20.53
2023-05-10T12:01:23.255Z,20.73
2023-05-10T12:03:51.383Z,20.76
2023-05-10T12:06:20.776Z,20.47
2023-05-10T12:08:53.357Z,19.95
2023-05-10T12:11:23.083Z,19.81
2023-05-10T12:13:50.948Z,20.10
2023-05-10T12:16:19.750Z,20.33
2023-05-10T12:18:47.844Z,20.35
2023-05-10T12:21:16.842Z,20.42
2023-05-10T12:23:44.644Z,21.11
2023-05-10T12:26:12.490Z,20.79
2023-05-10T12:28:41.543Z,20.35
2023-05-10T12:31:09.419Z,20.88
2023-05-10T12:33:42.596Z,21.19
2023-05-10T12:36:11.300Z,21.86
2023-05-10T12:38:41.190Z,22.31
2023-05-10T12:41:09.898Z,22.27
2023-05-10T12:43:37.992Z,20.98
2023-05-10T12:46:10.802Z,21.74
2023-05-10T12:48:39.927Z,21.21
2023-05-10T12:51:10.240Z,21.45
2023-05-10T12:53:38.158Z,21.17
2023-05-10T12:56:06.456Z,20.95
2023-05-10T12:58:36.045Z,20.78
2023-05-10T13:01:05.100Z,21.17
2023-05-10T13:03:34.233Z,21.14
2023-05-10T13:06:01.925Z,21.19
2023-05-10T13:08:34.089Z,21.10
2023-05-10T13:11:01.956Z,21.08
2023-05-10T13:13:29.600Z,20.21
2023-05-10T13:15:57.249Z,19.61
2023-05-10T13:18:25.575Z,19.31
2023-05-10T13:20:56.698Z,19.06
2023-05-10T13:23:24.433Z,19.43
2023-05-10T13:25:52.090Z,19.58
2023-05-10T13:28:19.748Z,19.64
2023-05-10T13:30:47.433Z,19.77
2023-05-10T13:33:15.091Z,19.80
2023-05-10T13:35:42.800Z,20.15
2023-05-10T13:38:12.200Z,20.43
2023-05-10T13:40:39.864Z,20.59
2023-05-10T13:43:07.555Z,20.65
2023-05-10T13:45:35.204Z,19.14
2023-05-10T13:48:03.277Z,18.25
2023-05-10T13:50:31.019Z,19.68
2023-05-10T13:52:58.672Z,20.23
2023-05-10T13:55:28.059Z,18.75
2023-05-10T13:57:55.717Z,19.33
2023-05-10T14:00:23.728Z,20.15
2023-05-10T14:02:51.458Z,20.97
2023-05-10T14:05:22.253Z,21.30
2023-05-10T14:07:52.919Z,21.13
2023-05-10T14:10:20.981Z,20.65
2023-05-10T14:12:49.987Z,20.39
2023-05-10T14:15:18.331Z,20.62
2023-05-10T14:17:46.138Z,20.90
2023-05-10T14:20:13.890Z,20.68
2023-05-10T14:22:41.906Z,20.82
2023-05-10T14:25:10.594Z,21.14
2023-05-10T14:27:38.256Z,21.08
2023-05-10T14:30:08.877Z,18.87
2023-05-10T14:32:37.539Z,19.38
2023-05-10T14:35:06.926Z,19.57
2023-05-10T14:37:34.654Z,18.34
2023-05-10T14:40:02.428Z,19.17
2023-05-10T14:42:30.111Z,19.69
2023-05-10T14:44:58.188Z,20.03
2023-05-10T14:47:27.316Z,20.05
2023-05-10T14:49:55.052Z,20.37
2023-05-10T14:52:22.759Z,20.51
2023-05-10T14:54:50.421Z,20.49
2023-05-10T14:57:18.085Z,20.38
2023-05-10T14:59:45.756Z,19.98
2023-05-10T15:02:14.511Z,20.24
2023-05-10T15:04:43.919Z,20.34
2023-05-10T15:07:15.326Z,20.01
2023-05-10T15:09:43.092Z,19.68
2023-05-10T15:12:10.722Z,20.01
2023-05-10T15:14:38.384Z,20.20
2023-05-10T15:17:08.416Z,20.25
2023-05-10T15:19:36.902Z,19.81
2023-05-10T15:22:06.273Z,20.13
2023-05-10T15:24:33.979Z,20.05
2023-05-10T15:27:02.034Z,19.87
2023-05-10T15:29:30.492Z,19.59
2023-05-10T15:31:58.153Z,19.48
2023-05-10T15:34:25.807Z,19.77
2023-05-10T15:36:53.487Z,19.95
2023-05-10T15:39:22.494Z,20.13
2023-05-10T15:41:50.215Z,20.01
2023-05-10T15:44:17.875Z,18.53
2023-05-10T15:46:45.588Z,18.62
2023-05-10T15:49:13.285Z,18.62
2023-05-10T15:51:41.616Z,19.50
2023-05-10T15:54:09.294Z,19.46
2023-05-10T15:56:38.425Z,19.01
2023-05-10T15:59:08.573Z,19.39
2023-05-10T16:01:36.355Z,19.60
2023-05-10T16:04:04.343Z,19.59
2023-05-10T16:06:32.776Z,19.90
2023-05-10T16:09:00.415Z,19.81
2023-05-10T16:11:28.296Z,19.84
2023-05-10T16:13:57.387Z,20.23
2023-05-10T16:16:25.748Z,20.61
2023-05-10T16:18:53.513Z,19.54
2023-05-10T16:21:21.258Z,18.42
2023-05-10T16:23:48.945Z,18.67
2023-05-10T16:26:16.962Z,19.51
2023-05-10T16:28:44.644Z,19.42
2023-05-10T16:31:13.799Z,19.47
2023-05-10T16:33:41.484Z,18.58
2023-05-10T16:36:09.324Z,19.30
2023-05-10T16:38:37.735Z,19.29
2023-05-10T16:41:06.762Z,19.10
2023-05-10T16:43:34.511Z,19.82
2023-05-10T16:46:02.181Z,19.69
2023-05-10T16:48:31.249Z,19.63
2023-05-10T16:50:58.942Z,19.11
2023-05-10T16:53:26.850Z,19.63
2023-05-10T16:55:54.564Z,19.82
2023-05-10T16:58:22.285Z,20.07
2023-05-10T17:00:50.026Z,19.21
2023-05-10T17:03:17.936Z,19.12
2023-05-10T17:05:47.052Z,18.72
2023-05-10T17:08:14.784Z,18.97
2023-05-10T17:10:42.490Z,19.26
2023-05-10T17:13:10.893Z,19.39
2023-05-10T17:15:39.118Z,19.74
2023-05-10T17:18:07.424Z,20.09
2023-05-10T17:20:35.338Z,18.65
2023-05-10T17:23:04.408Z,18.23
2023-05-10T17:25:32.042Z,18.56
2023-05-10T17:27:59.763Z,18.00
2023-05-10T17:30:28.803Z,18.17
2023-05-10T17:32:56.577Z,17.88
2023-05-10T17:35:24.642Z,18.43
2023-05-10T17:37:52.389Z,18.22
2023-05-10T17:40:21.809Z,18.73
2023-05-10T17:42:49.703Z,18.34
2023-05-10T17:45:18.053Z,18.41
2023-05-10T17:47:46.322Z,18.45
2023-05-10T17:50:14.180Z,18.17
2023-05-10T17:52:41.848Z,18.49
2023-05-10T17:55:10.143Z,18.44
2023-05-10T17:57:39.179Z,18.29
2023-05-10T18:00:09.188Z,18.60
2023-05-10T18:02:37.371Z,17.97
2023-05-10T18:05:05.740Z,17.81
2023-05-10T18:07:33.581Z,18.00
2023-05-10T18:10:01.326Z,18.17
2023-05-10T18:12:29.089Z,18.38
2023-05-10T18:14:58.083Z,17.81
2023-05-10T18:17:26.267Z,18.37
2023-05-10T18:19:53.974Z,18.79
2023-05-10T18:22:21.645Z,19.06
2023-05-10T18:24:49.336Z,19.30
2023-05-10T18:27:17.216Z,19.34
2023-05-10T18:29:44.930Z,19.31
2023-05-10T18:32:13.996Z,19.37
2023-05-10T18:34:41.669Z,18.89
2023-05-10T18:37:09.962Z,18.60
2023-05-10T18:39:37.959Z,19.05
2023-05-10T18:42:06.286Z,18.94
2023-05-10T18:44:33.975Z,19.27
2023-05-10T18:47:01.644Z,19.50
2023-05-10T18:49:30.689Z,19.43
2023-05-10T18:51:58.449Z,19.55
2023-05-10T18:54:26.728Z,19.45
2023-05-10T18:56:54.424Z,19.24
2023-05-10T18:59:22.139Z,19.46
2023-05-10T19:01:51.305Z,19.30
2023-05-10T19:04:19.329Z,19.20
2023-05-10T19:06:48.369Z,19.23
2023-05-10T19:09:16.263Z,19.20
2023-05-10T19:11:44.008Z,19.28
2023-05-10T19:14:11.732Z,19.14
2023-05-10T19:16:41.613Z,19.07
2023-05-10T19:19:10.161Z,19.12
2023-05-10T19:21:39.994Z,19.14
2023-05-10T19:24:10.026Z,19.09
2023-05-10T19:26:38.318Z,18.86
2023-05-10T19:29:05.996Z,18.78
2023-05-10T19:31:34.645Z,18.63
2023-05-10T19:34:06.065Z,18.60
2023-05-10T19:36:34.372Z,18.41
2023-05-10T19:39:02.409Z,18.26
2023-05-10T19:41:31.876Z,18.26
2023-05-10T19:43:59.856Z,18.20
2023-05-10T19:46:27.658Z,18.08
2023-05-10T19:48:55.474Z,18.18
2023-05-10T19:51:23.184Z,18.09
2023-05-10T19:53:50.911Z,18.02
2023-05-10T19:56:19.467Z,18.07
2023-05-10T19:58:48.501Z,18.21
2023-05-10T20:01:16.249Z,18.28
2023-05-10T20:03:44.057Z,18.28
2023-05-10T20:06:12.178Z,18.20
2023-05-10T20:08:39.866Z,18.13
2023-05-10T20:11:07.537Z,18.10
2023-05-10T20:13:35.230Z,18.08
2023-05-10T20:16:06.104Z,17.93
2023-05-10T20:18:33.875Z,17.83
2023-05-10T20:21:01.928Z,17.83
2023-05-10T20:23:29.661Z,17.95
2023-05-10T20:25:57.349Z,17.80
2023-05-10T20:28:26.490Z,17.59
2023-05-10T20:30:55.513Z,17.71
2023-05-10T20:33:24.819Z,17.72
2023-05-10T20:35:52.556Z,17.65
2023-05-10T20:38:21.082Z,17.42
2023-05-10T20:40:49.077Z,17.54
2023-05-10T20:43:16.833Z,17.52
2023-05-10T20:45:44.490Z,17.65
2023-05-10T20:48:12.173Z,17.70
2023-05-10T20:50:41.265Z,17.82
2023-05-10T20:53:08.973Z,17.87
2023-05-10T20:55:36.706Z,17.89
2023-05-10T20:58:05.133Z,17.88
2023-05-10T21:00:33.163Z,17.87
2023-05-10T21:03:00.894Z,17.86
2023-05-10T21:05:28.641Z,17.87
2023-05-10T21:07:58.445Z,17.82
2023-05-10T21:10:28.327Z,17.46
2023-05-10T21:12:56.202Z,17.61
2023-05-10T21:15:24.449Z,17.69
2023-05-10T21:17:53.873Z,17.63
2023-05-10T21:20:21.669Z,17.65
2023-05-10T21:22:49.393Z,17.67
2023-05-10T21:25:19.090Z,17.69
2023-05-10T21:27:47.233Z,17.67
2023-05-10T21:30:15.303Z,17.65
2023-05-10T21:32:43.134Z,17.63
2023-05-10T21:35:11.157Z,17.52
2023-05-10T21:37:38.905Z,17.46
2023-05-10T21:42:01.641Z,17.46
2023-05-10T21:44:29.485Z,17.40
2023-05-10T21:46:57.172Z,17.30
2023-05-10T21:49:24.904Z,17.32
2023-05-10T21:51:52.616Z,17.20
2023-05-10T21:54:20.360Z,17.07
2023-05-10T21:56:48.483Z,16.86
2023-05-10T21:59:17.991Z,17.00
2023-05-10T22:01:45.893Z,17.08
2023-05-10T22:04:14.112Z,17.09
2023-05-10T22:06:41.853Z,17.04
2023-05-10T22:09:10.092Z,17.01
2023-05-10T22:11:37.752Z,17.04
2023-05-10T22:14:05.431Z,16.80
2023-05-10T22:16:34.470Z,16.73
2023-05-10T22:19:02.199Z,16.72
2023-05-10T22:21:29.994Z,16.70
2023-05-10T22:23:57.708Z,16.78
2023-05-10T22:26:26.084Z,16.80
2023-05-10T22:28:53.800Z,16.87
2023-05-10T22:31:21.571Z,16.82
2023-05-10T22:33:50.690Z,16.86
2023-05-10T22:36:18.350Z,16.86
2023-05-10T22:38:46.063Z,16.92
2023-05-10T22:41:13.701Z,17.01
2023-05-10T22:43:41.429Z,17.06
2023-05-10T22:46:09.271Z,17.07
2023-05-10T22:48:37.109Z,17.19
2023-05-10T22:51:06.332Z,17.19
2023-05-10T22:53:33.980Z,17.17
2023-05-10T22:56:01.791Z,17.18
2023-05-10T22:58:29.477Z,17.19
2023-05-10T23:00:57.169Z,17.10
2023-05-10T23:03:25.792Z,17.11
2023-05-10T23:05:53.501Z,17.00
2023-05-10T23:08:22.652Z,17.02
2023-05-10T23:10:50.497Z,17.00
2023-05-10T23:13:18.786Z,17.05
2023-05-10T23:15:46.553Z,17.04
2023-05-10T23:18:14.360Z,17.11
2023-05-10T23:20:42.687Z,17.13
2023-05-10T23:23:10.372Z,17.20
2023-05-10T23:25:39.524Z,17.27
2023-05-10T23:28:07.201Z,17.07
2023-05-10T23:30:34.910Z,16.43
2023-05-10T23:33:03.155Z,16.44
2023-05-10T23:35:30.958Z,16.59
2023-05-10T23:37:58.727Z,16.56
2023-05-10T23:40:26.585Z,16.59
2023-05-10T23:42:55.606Z,16.28
2023-05-10T23:45:23.291Z,16.08
2023-05-10T23:47:51.008Z,16.21
2023-05-10T23:50:19.092Z,16.18
2023-05-10T23:52:46.947Z,16.07
2023-05-10T23:55:14.825Z,15.98
2023-05-10T23:57:42.520Z,16.04
